createdAt,value
2019-01-26T00:00:45.295Z,66.25
2019-01-26T00:03:16.753Z,66.37
2019-01-26T00:05:48.216Z,66.62
2019-01-26T00:08:19.717Z,66.43
2019-01-26T00:10:51.177Z,66.59
2019-01-26T00:13:24.207Z,66.34
2019-01-26T00:15:55.802Z,66.19
2019-01-26T00:18:27.328Z,66.12
2019-01-26T00:20:58.793Z,66.40
2019-01-26T00:23:30.518Z,66.87
2019-01-26T00:26:01.961Z,66.92
2019-01-26T00:28:33.482Z,66.76
2019-01-26T00:31:06.052Z,66.54
2019-01-26T00:33:37.560Z,67.02
2019-01-26T00:36:09.036Z,66.89
2019-01-26T00:38:40.500Z,66.72
2019-01-26T00:41:12.025Z,66.94
2019-01-26T00:43:44.533Z,67.34
2019-01-26T00:46:16.056Z,67.10
2019-01-26T00:48:47.496Z,67.20
2019-01-26T00:51:19.078Z,67.02
2019-01-26T00:53:50.524Z,66.72
2019-01-26T00:56:22.024Z,66.54
2019-01-26T00:58:53.498Z,67.10
2019-01-26T01:01:24.982Z,66.87
2019-01-26T01:03:56.439Z,66.77
2019-01-26T01:06:27.974Z,67.01
2019-01-26T01:09:01.271Z,66.94
2019-01-26T01:11:37.401Z,66.80
2019-01-26T01:14:08.918Z,66.83
2019-01-26T01:16:41.606Z,67.00
2019-01-26T01:19:13.110Z,66.87
2019-01-26T01:21:44.718Z,66.84
2019-01-26T01:24:16.244Z,66.80
2019-01-26T01:26:47.701Z,66.99
2019-01-26T01:29:19.206Z,67.01
2019-01-26T01:31:50.976Z,66.95
2019-01-26T01:34:22.498Z,66.53
2019-01-26T01:36:53.975Z,66.37
2019-01-26T01:39:25.519Z,66.26
2019-01-26T01:41:57.107Z,66.12
2019-01-26T01:44:28.552Z,66.04
2019-01-26T01:47:00.336Z,66.14
2019-01-26T01:49:31.823Z,65.80
2019-01-26T01:52:03.390Z,66.17
2019-01-26T01:54:34.992Z,66.38
2019-01-26T01:57:06.514Z,66.34
2019-01-26T01:59:38.202Z,66.06
2019-01-26T02:02:09.827Z,66.21
2019-01-26T02:04:41.268Z,66.17
2019-01-26T02:07:12.754Z,66.37
2019-01-26T02:09:44.195Z,66.50
2019-01-26T02:12:15.703Z,66.21
2019-01-26T02:14:47.188Z,66.29
2019-01-26T02:17:18.849Z,66.46
2019-01-26T02:19:50.274Z,66.13
2019-01-26T02:22:21.887Z,65.96
2019-01-26T02:24:53.333Z,66.34
2019-01-26T02:27:24.852Z,66.17
2019-01-26T02:29:56.596Z,66.31
2019-01-26T02:32:28.225Z,66.63
2019-01-26T02:34:59.704Z,67.05
2019-01-26T02:37:31.184Z,66.91
2019-01-26T02:40:02.680Z,67.52
2019-01-26T02:42:34.241Z,68.08
2019-01-26T02:45:06.100Z,68.17
2019-01-26T02:47:37.778Z,68.02
2019-01-26T02:50:12.985Z,68.52
2019-01-26T02:52:44.659Z,67.81
2019-01-26T02:55:16.186Z,68.05
2019-01-26T02:57:47.638Z,68.31
2019-01-26T03:00:22.284Z,68.09
2019-01-26T03:02:53.926Z,68.47
2019-01-26T03:05:25.449Z,68.33
2019-01-26T03:07:56.906Z,69.03
2019-01-26T03:10:28.349Z,69.05
2019-01-26T03:12:59.926Z,68.89
2019-01-26T03:15:31.376Z,68.61
2019-01-26T03:18:03.033Z,68.23
2019-01-26T03:20:34.455Z,68.17
2019-01-26T03:23:05.956Z,68.28
2019-01-26T03:25:37.437Z,68.29
2019-01-26T03:28:08.935Z,68.02
2019-01-26T03:30:40.392Z,68.20
2019-01-26T03:33:12.010Z,68.22
2019-01-26T03:35:43.488Z,68.33
2019-01-26T03:38:18.043Z,67.97
2019-01-26T03:40:49.480Z,67.81
2019-01-26T03:43:20.980Z,67.46
2019-01-26T03:45:52.449Z,67.30
2019-01-26T03:48:25.360Z,67.09
2019-01-26T03:50:56.816Z,67.36
2019-01-26T03:53:28.295Z,67.08
2019-01-26T03:55:59.777Z,66.78
2019-01-26T03:58:31.586Z,67.01
2019-01-26T04:01:03.038Z,66.50
2019-01-26T04:03:34.657Z,66.55
2019-01-26T04:06:06.133Z,66.76
2019-01-26T04:08:37.576Z,66.81
2019-01-26T04:11:09.038Z,66.73
2019-01-26T04:13:40.476Z,66.98
2019-01-26T04:16:12.062Z,66.70
2019-01-26T04:18:44.063Z,66.72
2019-01-26T04:21:15.597Z,66.82
2019-01-26T04:23:47.043Z,66.39
2019-01-26T04:26:18.511Z,66.28
2019-01-26T04:28:52.560Z,66.16
2019-01-26T04:31:26.740Z,66.35
2019-01-26T04:33:58.642Z,66.35
2019-01-26T04:36:30.093Z,66.20
2019-01-26T04:39:01.575Z,66.23
2019-01-26T04:41:33.596Z,66.42
2019-01-26T04:44:05.209Z,66.04
2019-01-26T04:46:36.752Z,65.79
2019-01-26T04:49:08.447Z,65.59
2019-01-26T04:51:39.927Z,65.72
2019-01-26T04:54:11.481Z,65.49
2019-01-26T04:56:45.947Z,65.45
2019-01-26T04:59:17.412Z,65.53
2019-01-26T05:01:48.862Z,65.37
2019-01-26T05:04:20.515Z,65.44
2019-01-26T05:06:52.040Z,65.56
2019-01-26T05:09:23.517Z,65.52
2019-01-26T05:11:54.964Z,65.30
2019-01-26T05:14:27.447Z,65.07
2019-01-26T05:16:58.929Z,64.80
2019-01-26T05:19:30.699Z,64.64
2019-01-26T05:22:02.157Z,64.55
2019-01-26T05:24:33.665Z,64.17
2019-01-26T05:27:05.087Z,64.09
2019-01-26T05:29:36.569Z,64.02
2019-01-26T05:32:08.019Z,64.10
2019-01-26T05:34:39.797Z,64.12
2019-01-26T05:37:14.034Z,63.97
2019-01-26T05:39:45.588Z,63.76
2019-01-26T05:42:17.072Z,63.67
2019-01-26T05:44:48.518Z,63.87
2019-01-26T05:47:20.022Z,63.80
2019-01-26T05:49:51.813Z,63.89
2019-01-26T05:52:23.305Z,64.05
2019-01-26T05:54:54.790Z,64.04
2019-01-26T05:57:26.293Z,63.85
2019-01-26T05:59:57.800Z,63.79
2019-01-26T06:02:29.357Z,63.57
2019-01-26T06:05:00.945Z,63.45
2019-01-26T06:07:32.456Z,63.12
2019-01-26T06:10:04.301Z,63.22
2019-01-26T06:12:35.789Z,62.97
2019-01-26T06:15:07.744Z,63.23
2019-01-26T06:17:39.246Z,63.25
2019-01-26T06:20:12.611Z,63.36
2019-01-26T06:22:44.077Z,63.17
2019-01-26T06:25:16.821Z,63.12
2019-01-26T06:27:48.322Z,63.04
2019-01-26T06:30:22.994Z,63.15
2019-01-26T06:32:54.458Z,63.17
2019-01-26T06:35:26.249Z,63.04
2019-01-26T06:37:57.760Z,62.98
2019-01-26T06:40:29.243Z,63.45
2019-01-26T06:43:00.785Z,63.57
2019-01-26T06:45:34.018Z,63.25
2019-01-26T06:48:05.611Z,63.26
2019-01-26T06:50:37.105Z,63.08
2019-01-26T06:53:11.441Z,63.27
2019-01-26T06:55:43.026Z,63.19
2019-01-26T06:58:14.540Z,63.09
2019-01-26T07:00:46.118Z,63.00
2019-01-26T07:03:17.726Z,62.89
2019-01-26T07:06:03.048Z,62.92
2019-01-26T07:08:34.536Z,63.22
2019-01-26T07:11:06.028Z,63.33
2019-01-26T07:13:37.518Z,63.42
2019-01-26T07:16:09.186Z,63.14
2019-01-26T07:18:42.767Z,62.90
2019-01-26T07:21:14.699Z,63.04
2019-01-26T07:23:46.307Z,62.72
2019-01-26T07:26:17.846Z,62.47
2019-01-26T07:28:49.432Z,62.52
2019-01-26T07:31:20.901Z,62.40
2019-01-26T07:33:52.532Z,62.20
2019-01-26T07:36:24.114Z,62.07
2019-01-26T07:38:56.691Z,61.71
2019-01-26T07:41:28.154Z,61.49
2019-01-26T07:43:59.681Z,61.53
2019-01-26T07:46:31.233Z,61.18
2019-01-26T07:49:02.805Z,61.25
2019-01-26T07:51:34.490Z,61.07
2019-01-26T07:54:08.519Z,61.19
2019-01-26T07:56:40.221Z,61.02
2019-01-26T07:59:11.745Z,61.04
2019-01-26T08:01:43.283Z,61.00
2019-01-26T08:04:14.845Z,60.82
2019-01-26T08:06:46.525Z,60.50
2019-01-26T08:09:18.035Z,60.27
2019-01-26T08:11:49.561Z,60.19
2019-01-26T08:14:21.141Z,60.50
2019-01-26T08:16:52.720Z,59.90
2019-01-26T08:19:24.247Z,59.63
2019-01-26T08:21:55.993Z,59.82
2019-01-26T08:24:27.542Z,60.12
2019-01-26T08:26:59.063Z,60.04
2019-01-26T08:29:30.543Z,59.88
2019-01-26T08:32:02.107Z,60.07
2019-01-26T08:34:33.879Z,59.83
2019-01-26T08:37:05.809Z,59.84
2019-01-26T08:39:37.267Z,59.73
2019-01-26T08:42:08.775Z,59.61
2019-01-26T08:44:40.278Z,59.07
2019-01-26T08:47:11.800Z,59.27
2019-01-26T08:49:43.301Z,59.57
2019-01-26T08:52:15.059Z,59.16
2019-01-26T08:54:46.581Z,58.83
2019-01-26T08:57:18.231Z,58.74
2019-01-26T08:59:49.769Z,58.62
2019-01-26T09:02:40.178Z,58.69
2019-01-26T09:05:13.414Z,58.94
2019-01-26T09:07:45.003Z,59.12
2019-01-26T09:10:16.478Z,58.34
2019-01-26T09:12:48.040Z,58.23
2019-01-26T09:15:19.598Z,58.47
2019-01-26T09:17:51.191Z,58.33
2019-01-26T09:20:22.664Z,58.02
2019-01-26T09:22:54.563Z,57.81
2019-01-26T09:25:26.097Z,57.58
2019-01-26T09:27:57.729Z,57.52
2019-01-26T09:30:29.219Z,57.27
2019-01-26T09:33:00.786Z,57.33
2019-01-26T09:35:32.386Z,57.66
2019-01-26T09:38:04.225Z,57.04
2019-01-26T09:40:35.705Z,56.63
2019-01-26T09:43:08.531Z,56.42
2019-01-26T09:45:40.323Z,56.65
2019-01-26T09:48:12.000Z,56.08
2019-01-26T09:50:43.526Z,56.04
2019-01-26T09:53:15.266Z,55.67
2019-01-26T09:55:47.002Z,55.69
2019-01-26T09:58:20.002Z,55.46
2019-01-26T10:00:51.875Z,55.37
2019-01-26T10:03:23.496Z,55.35
2019-01-26T10:05:55.040Z,55.29
2019-01-26T10:08:26.965Z,55.03
2019-01-26T10:10:58.567Z,55.04
2019-01-26T10:13:30.116Z,54.73
2019-01-26T10:16:01.897Z,54.84
2019-01-26T10:18:33.444Z,55.05
2019-01-26T10:21:05.102Z,55.31
2019-01-26T10:23:38.228Z,55.33
2019-01-26T10:26:09.676Z,54.97
2019-01-26T10:28:41.255Z,54.92
2019-01-26T10:31:13.154Z,54.86
2019-01-26T10:33:44.798Z,54.96
2019-01-26T10:36:35.200Z,54.95
2019-01-26T10:39:17.045Z,54.05
2019-01-26T10:42:07.540Z,53.83
2019-01-26T10:44:39.153Z,53.53
2019-01-26T10:47:10.673Z,53.16
2019-01-26T10:49:42.347Z,53.16
2019-01-26T10:52:13.928Z,52.80
2019-01-26T10:54:45.857Z,52.25
2019-01-26T10:57:17.500Z,52.03
2019-01-26T10:59:49.396Z,51.78
2019-01-26T11:02:20.954Z,51.21
2019-01-26T11:04:53.892Z,51.43
2019-01-26T11:07:25.429Z,51.09
2019-01-26T11:09:57.118Z,50.49
2019-01-26T11:12:28.655Z,50.19
2019-01-26T11:15:00.233Z,50.09
2019-01-26T11:17:31.769Z,50.14
2019-01-26T11:20:04.508Z,50.11
2019-01-26T11:22:35.979Z,49.59
2019-01-26T11:25:08.899Z,49.82
2019-01-26T11:27:40.591Z,49.71
2019-01-26T11:30:12.404Z,49.56
2019-01-26T11:32:44.002Z,49.22
2019-01-26T11:35:15.495Z,49.10
2019-01-26T11:37:47.015Z,49.25
2019-01-26T11:40:21.729Z,48.81
2019-01-26T11:42:54.293Z,48.96
2019-01-26T11:45:38.792Z,49.31
2019-01-26T11:48:17.891Z,49.06
2019-01-26T11:50:53.969Z,49.31
2019-01-26T11:53:25.706Z,50.18
2019-01-26T11:56:02.069Z,50.45
2019-01-26T11:58:33.588Z,50.56
2019-01-26T12:01:27.124Z,50.62
2019-01-26T12:04:11.699Z,50.54
2019-01-26T12:06:53.592Z,51.02
2019-01-26T12:09:25.141Z,50.93
2019-01-26T12:11:56.946Z,51.15
2019-01-26T12:14:28.603Z,51.30
2019-01-26T12:17:00.116Z,51.47
2019-01-26T12:19:31.603Z,51.47
2019-01-26T12:22:03.129Z,51.57
2019-01-26T12:24:34.692Z,51.34
2019-01-26T12:27:06.434Z,51.48
2019-01-26T12:29:37.986Z,51.55
2019-01-26T12:32:09.485Z,51.39
2019-01-26T12:34:41.063Z,51.81
2019-01-26T12:37:12.656Z,52.13
2019-01-26T12:39:44.248Z,52.56
2019-01-26T12:42:16.095Z,53.08
2019-01-26T12:44:49.317Z,53.23
2019-01-26T12:47:20.845Z,53.54
2019-01-26T12:49:53.416Z,53.82
2019-01-26T12:52:24.910Z,53.94
2019-01-26T12:54:56.451Z,54.09
2019-01-26T12:57:28.033Z,54.21
2019-01-26T12:59:59.575Z,54.79
2019-01-26T13:02:31.336Z,54.87
2019-01-26T13:05:02.849Z,55.12
2019-01-26T13:07:34.431Z,55.40
2019-01-26T13:10:11.492Z,55.12
2019-01-26T13:12:43.386Z,55.34
2019-01-26T13:15:15.370Z,55.20
2019-01-26T13:17:47.367Z,55.38
2019-01-26T13:20:18.828Z,55.69
2019-01-26T13:22:50.366Z,56.01
2019-01-26T13:25:22.374Z,56.53
2019-01-26T13:27:54.271Z,57.24
2019-01-26T13:30:25.869Z,57.36
2019-01-26T13:32:57.771Z,57.80
2019-01-26T13:35:29.430Z,58.15
2019-01-26T13:38:01.835Z,57.94
2019-01-26T13:40:34.469Z,58.28
2019-01-26T13:43:06.457Z,58.76
2019-01-26T13:45:38.117Z,59.21
2019-01-26T13:48:09.707Z,59.52
2019-01-26T13:50:41.272Z,59.69
2019-01-26T13:53:12.862Z,60.07
2019-01-26T13:55:44.381Z,59.74
2019-01-26T13:58:16.171Z,60.13
2019-01-26T14:00:47.985Z,60.17
2019-01-26T14:03:19.599Z,60.27
2019-01-26T14:05:51.168Z,60.28
2019-01-26T14:08:22.774Z,60.88
2019-01-26T14:10:54.288Z,61.16
2019-01-26T14:13:26.160Z,61.23
2019-01-26T14:15:57.805Z,61.03
2019-01-26T14:18:29.399Z,61.48
2019-01-26T14:21:00.926Z,61.78
2019-01-26T14:23:32.551Z,61.74
2019-01-26T14:26:05.657Z,61.78
2019-01-26T14:28:37.753Z,61.76
2019-01-26T14:31:10.188Z,62.24
2019-01-26T14:33:41.726Z,62.09
2019-01-26T14:36:13.387Z,62.37
2019-01-26T14:38:44.992Z,62.37
2019-01-26T14:41:16.554Z,62.73
2019-01-26T14:43:48.313Z,62.63
2019-01-26T14:46:19.880Z,62.82
2019-01-26T14:48:51.475Z,62.87
2019-01-26T14:51:23.208Z,63.11
2019-01-26T14:53:54.796Z,63.06
2019-01-26T14:56:26.362Z,63.29
2019-01-26T14:58:58.214Z,63.56
2019-01-26T15:01:29.846Z,63.43
2019-01-26T15:04:01.526Z,63.72
2019-01-26T15:06:33.186Z,63.97
2019-01-26T15:09:06.841Z,63.91
2019-01-26T15:11:38.439Z,63.97
2019-01-26T15:14:10.478Z,64.06
2019-01-26T15:16:42.037Z,64.22
2019-01-26T15:19:13.630Z,64.26
2019-01-26T15:21:45.206Z,64.29
2019-01-26T15:24:16.829Z,64.31
2019-01-26T15:26:48.475Z,64.40
2019-01-26T15:29:19.993Z,64.40
2019-01-26T15:31:51.623Z,64.35
2019-01-26T15:34:23.361Z,64.41
2019-01-26T15:36:55.140Z,64.56
2019-01-26T15:39:27.176Z,64.62
2019-01-26T15:41:58.797Z,64.70
2019-01-26T15:44:30.553Z,64.55
2019-01-26T15:47:02.139Z,64.75
2019-01-26T15:49:33.813Z,64.70
2019-01-26T15:52:05.714Z,64.68
2019-01-26T15:54:38.503Z,64.80
2019-01-26T15:57:10.044Z,64.81
2019-01-26T15:59:42.007Z,65.00
2019-01-26T16:02:13.709Z,64.93
2019-01-26T16:04:45.707Z,64.91
2019-01-26T16:07:17.369Z,64.91
2019-01-26T16:09:48.921Z,65.20
2019-01-26T16:12:20.641Z,65.29
2019-01-26T16:14:52.393Z,65.30
2019-01-26T16:17:23.912Z,65.35
2019-01-26T16:19:55.493Z,65.37
2019-01-26T16:22:27.093Z,65.51
2019-01-26T16:24:58.631Z,65.50
2019-01-26T16:27:30.551Z,65.60
2019-01-26T16:30:02.735Z,65.64
2019-01-26T16:32:35.441Z,65.46
2019-01-26T16:35:10.205Z,65.57
2019-01-26T16:37:41.729Z,65.72
2019-01-26T16:40:17.507Z,65.67
2019-01-26T16:42:48.998Z,65.69
2019-01-26T16:45:24.929Z,65.89
2019-01-26T16:47:56.513Z,65.97
2019-01-26T16:50:30.020Z,66.00
2019-01-26T16:53:01.522Z,65.92
2019-01-26T16:55:33.097Z,65.85
2019-01-26T16:58:04.900Z,65.57
2019-01-26T17:00:51.787Z,65.72
2019-01-26T17:03:23.307Z,65.82
2019-01-26T17:05:55.011Z,65.85
2019-01-26T17:08:26.760Z,66.09
2019-01-26T17:10:58.338Z,66.17
2019-01-26T17:13:29.917Z,66.18
2019-01-26T17:16:01.940Z,66.04
2019-01-26T17:18:33.519Z,66.14
2019-01-26T17:21:05.144Z,66.17
2019-01-26T17:23:36.686Z,66.17
2019-01-26T17:26:08.519Z,66.14
2019-01-26T17:28:40.123Z,66.17
2019-01-26T17:31:11.932Z,65.89
2019-01-26T17:33:43.504Z,65.70
2019-01-26T17:36:15.248Z,66.07
2019-01-26T17:38:46.868Z,66.23
2019-01-26T17:41:18.461Z,66.34
2019-01-26T17:43:50.179Z,66.27
2019-01-26T17:46:22.670Z,66.57
2019-01-26T17:48:54.150Z,66.65
2019-01-26T17:51:25.679Z,66.63
2019-01-26T17:53:57.260Z,66.53
2019-01-26T17:56:28.815Z,66.56
2019-01-26T17:59:00.774Z,66.29
2019-01-26T18:01:32.391Z,66.31
2019-01-26T18:04:04.262Z,66.34
2019-01-26T18:06:35.750Z,66.35
2019-01-26T18:09:09.172Z,66.40
2019-01-26T18:11:41.344Z,66.31
2019-01-26T18:14:12.970Z,66.22
2019-01-26T18:16:44.672Z,66.07
2019-01-26T18:19:17.454Z,66.04
2019-01-26T18:21:49.013Z,66.20
2019-01-26T18:24:20.666Z,66.16
2019-01-26T18:26:52.251Z,66.10
2019-01-26T18:29:23.934Z,66.12
2019-01-26T18:31:55.841Z,66.21
2019-01-26T18:34:27.548Z,66.17
2019-01-26T18:36:59.205Z,66.33
2019-01-26T18:39:31.468Z,66.30
2019-01-26T18:42:03.690Z,66.14
2019-01-26T18:44:36.223Z,66.29
2019-01-26T18:47:08.187Z,66.27
2019-01-26T18:49:39.924Z,66.19
2019-01-26T18:52:11.678Z,66.06
2019-01-26T18:54:44.655Z,66.29
2019-01-26T18:57:16.676Z,66.24
2019-01-26T18:59:48.263Z,66.16
2019-01-26T19:02:20.142Z,65.92
2019-01-26T19:04:59.044Z,66.13
2019-01-26T19:07:31.843Z,66.31
2019-01-26T19:10:03.600Z,66.54
2019-01-26T19:12:35.693Z,66.63
2019-01-26T19:15:10.540Z,66.57
2019-01-26T19:17:43.117Z,66.77
2019-01-26T19:20:15.328Z,67.07
2019-01-26T19:22:47.182Z,67.20
2019-01-26T19:25:21.300Z,67.27
2019-01-26T19:27:53.479Z,67.21
2019-01-26T19:30:25.598Z,67.26
2019-01-26T19:32:58.432Z,67.05
2019-01-26T19:35:30.102Z,66.78
2019-01-26T19:38:01.894Z,66.95
2019-01-26T19:40:34.558Z,66.86
2019-01-26T19:43:06.331Z,66.88
2019-01-26T19:45:37.931Z,66.85
2019-01-26T19:48:09.959Z,66.82
2019-01-26T19:50:41.811Z,66.75
2019-01-26T19:53:13.707Z,66.73
2019-01-26T19:55:45.576Z,66.60
2019-01-26T19:58:17.455Z,66.58
2019-01-26T20:00:49.291Z,66.64
2019-01-26T20:03:20.931Z,66.69
2019-01-26T20:05:52.607Z,66.92
2019-01-26T20:08:25.518Z,66.99
2019-01-26T20:10:57.249Z,66.87
2019-01-26T20:13:28.869Z,66.99
2019-01-26T20:16:00.433Z,67.09
2019-01-26T20:18:32.226Z,67.15
2019-01-26T20:21:03.818Z,67.09
2019-01-26T20:23:35.416Z,66.84
2019-01-26T20:26:07.061Z,66.92
2019-01-26T20:28:38.554Z,66.65
2019-01-26T20:31:10.045Z,66.85
2019-01-26T20:33:41.824Z,66.97
2019-01-26T20:36:13.313Z,66.72
2019-01-26T20:38:44.849Z,66.83
2019-01-26T20:41:16.439Z,66.74
2019-01-26T20:43:47.954Z,66.93
2019-01-26T20:46:19.575Z,66.65
2019-01-26T20:48:51.505Z,66.74
2019-01-26T20:51:24.983Z,66.87
2019-01-26T20:53:57.764Z,66.71
2019-01-26T20:56:29.292Z,66.83
2019-01-26T20:59:00.885Z,66.86
2019-01-26T21:01:32.501Z,66.72
2019-01-26T21:04:04.962Z,66.84
2019-01-26T21:06:36.897Z,66.79
2019-01-26T21:09:10.496Z,66.73
2019-01-26T21:11:42.184Z,66.98
2019-01-26T21:14:13.902Z,66.94
2019-01-26T21:16:45.600Z,66.76
2019-01-26T21:19:17.505Z,66.82
2019-01-26T21:21:49.203Z,66.70
2019-01-26T21:24:20.722Z,67.03
2019-01-26T21:26:52.244Z,66.83
2019-01-26T21:29:23.817Z,66.97
2019-01-26T21:31:55.441Z,66.88
2019-01-26T21:34:27.524Z,66.72
2019-01-26T21:36:59.763Z,66.84
2019-01-26T21:39:32.241Z,66.83
2019-01-26T21:42:04.153Z,66.41
2019-01-26T21:44:36.315Z,66.57
2019-01-26T21:47:08.773Z,66.34
2019-01-26T21:49:40.383Z,66.35
2019-01-26T21:52:13.287Z,66.09
2019-01-26T21:54:44.929Z,65.86
2019-01-26T21:57:16.568Z,65.82
2019-01-26T21:59:48.064Z,65.75
2019-01-26T22:02:19.700Z,65.50
2019-01-26T22:04:51.341Z,65.63
2019-01-26T22:07:22.879Z,65.79
2019-01-26T22:09:54.887Z,65.60
2019-01-26T22:12:26.794Z,65.68
2019-01-26T22:14:58.464Z,65.54
2019-01-26T22:17:30.142Z,65.71
2019-01-26T22:20:03.495Z,65.79
2019-01-26T22:22:36.510Z,65.78
2019-01-26T22:25:10.982Z,65.64
2019-01-26T22:27:43.764Z,65.66
2019-01-26T22:30:27.963Z,65.96
2019-01-26T22:32:59.591Z,66.10
2019-01-26T22:35:31.271Z,66.00
2019-01-26T22:38:02.811Z,65.97
2019-01-26T22:40:36.939Z,65.80
2019-01-26T22:43:08.526Z,65.97
2019-01-26T22:45:40.359Z,66.06
2019-01-26T22:48:11.880Z,66.29
2019-01-26T22:50:43.490Z,66.06
2019-01-26T22:53:14.988Z,66.09
2019-01-26T22:55:46.541Z,66.07
2019-01-26T22:58:18.060Z,66.22
2019-01-26T23:01:08.597Z,66.07
2019-01-26T23:04:08.050Z,66.04
2019-01-26T23:07:53.863Z,65.98
2019-01-26T23:11:10.242Z,66.02
2019-01-26T23:14:19.635Z,65.81
2019-01-26T23:18:05.196Z,65.85
2019-01-26T23:21:19.965Z,66.01
2019-01-26T23:24:47.222Z,65.89
2019-01-26T23:27:52.859Z,65.93
2019-01-26T23:31:16.539Z,65.94
2019-01-26T23:33:53.718Z,65.73
2019-01-26T23:36:25.255Z,65.78
2019-01-26T23:39:02.157Z,65.84
2019-01-26T23:41:30.114Z,65.54
2019-01-26T23:44:01.613Z,65.72
2019-01-26T23:46:33.111Z,65.52
2019-01-26T23:49:04.671Z,65.37
2019-01-26T23:51:36.150Z,65.56
2019-01-26T23:54:08.013Z,65.65
2019-01-26T23:56:39.486Z,65.65
2019-01-26T23:59:11.043Z,65.74
